createdAt,value
2018-09-04T00:00:37.953Z,928.23
2018-09-04T00:01:37.921Z,928.24
2018-09-04T00:02:37.883Z,928.29
2018-09-04T00:03:37.816Z,928.32
2018-09-04T00:04:37.777Z,928.28
2018-09-04T00:05:37.727Z,928.33
2018-09-04T00:06:37.677Z,928.33
2018-09-04T00:07:37.636Z,928.43
2018-09-04T00:08:37.584Z,928.33
2018-09-04T00:09:37.537Z,928.36
2018-09-04T00:10:37.486Z,928.40
2018-09-04T00:11:37.440Z,928.41
2018-09-04T00:12:37.393Z,928.53
2018-09-04T00:13:37.345Z,928.47
2018-09-04T00:14:37.301Z,928.43
2018-09-04T00:15:37.254Z,928.45
2018-09-04T00:16:37.212Z,928.47
2018-09-04T00:17:37.149Z,928.50
2018-09-04T00:18:37.100Z,928.51
2018-09-04T00:19:37.041Z,928.47
2018-09-04T00:20:37.015Z,928.45
2018-09-04T00:21:36.969Z,928.55
2018-09-04T00:22:36.925Z,928.46
2018-09-04T00:23:36.870Z,928.42
2018-09-04T00:24:36.869Z,928.39
2018-09-04T00:25:36.774Z,928.30
2018-09-04T00:26:36.727Z,928.34
2018-09-04T00:27:36.676Z,928.28
2018-09-04T00:28:36.632Z,928.32
2018-09-04T00:29:36.584Z,928.40
2018-09-04T00:30:36.534Z,928.37
2018-09-04T00:31:36.483Z,928.43
2018-09-04T00:32:36.434Z,928.35
2018-09-04T00:33:36.388Z,928.50
2018-09-04T00:34:36.342Z,928.45
2018-09-04T00:35:36.298Z,928.34
2018-09-04T00:36:36.237Z,928.37
2018-09-04T00:37:36.193Z,928.38
2018-09-04T00:38:36.147Z,928.34
2018-09-04T00:39:36.104Z,928.40
2018-09-04T00:40:36.064Z,928.35
2018-09-04T00:41:36.011Z,928.42
2018-09-04T00:42:35.964Z,928.35
2018-09-04T00:43:35.907Z,928.33
2018-09-04T00:44:35.861Z,928.38
2018-09-04T00:45:35.812Z,928.36
2018-09-04T00:46:35.747Z,928.35
2018-09-04T00:47:35.709Z,928.28
2018-09-04T00:48:35.661Z,928.27
2018-09-04T00:49:35.603Z,928.19
2018-09-04T00:50:35.571Z,928.25
2018-09-04T00:51:35.520Z,928.27
2018-09-04T00:52:35.486Z,928.24
2018-09-04T00:53:35.422Z,928.25
2018-09-04T00:54:35.368Z,928.20
2018-09-04T00:55:35.346Z,928.20
2018-09-04T00:56:35.276Z,928.19
2018-09-04T00:57:35.239Z,928.22
2018-09-04T00:58:35.188Z,928.19
2018-09-04T00:59:35.136Z,928.18
2018-09-04T01:00:35.090Z,928.22
2018-09-04T01:01:35.054Z,928.19
2018-09-04T01:02:34.998Z,928.18
2018-09-04T01:03:34.947Z,928.18
2018-09-04T01:04:34.900Z,928.15
2018-09-04T01:05:34.858Z,928.16
2018-09-04T01:06:34.784Z,928.16
2018-09-04T01:07:34.756Z,928.18
2018-09-04T01:08:34.699Z,928.18
2018-09-04T01:09:34.659Z,928.17
2018-09-04T01:10:34.606Z,928.15
2018-09-04T01:11:34.549Z,928.20
2018-09-04T01:12:34.501Z,928.14
2018-09-04T01:13:34.471Z,928.17
2018-09-04T01:14:34.422Z,928.14
2018-09-04T01:15:34.379Z,928.13
2018-09-04T01:16:34.311Z,928.10
2018-09-04T01:17:34.273Z,928.07
2018-09-04T01:18:34.223Z,928.08
2018-09-04T01:19:34.166Z,928.08
2018-09-04T01:20:34.128Z,928.12
2018-09-04T01:21:34.078Z,928.10
2018-09-04T01:22:34.029Z,928.10
2018-09-04T01:23:33.986Z,928.13
2018-09-04T01:24:33.937Z,928.15
2018-09-04T01:25:33.871Z,928.14
2018-09-04T01:26:33.838Z,928.17
2018-09-04T01:27:33.796Z,928.14
2018-09-04T01:28:33.739Z,928.15
2018-09-04T01:29:33.700Z,928.10
2018-09-04T01:30:33.654Z,928.13
2018-09-04T01:31:33.593Z,928.08
2018-09-04T01:32:33.540Z,928.10
2018-09-04T01:33:33.500Z,928.06
2018-09-04T01:34:33.454Z,928.02
2018-09-04T01:35:33.402Z,928.03
2018-09-04T01:36:33.363Z,928.08
2018-09-04T01:37:33.304Z,928.05
2018-09-04T01:38:33.266Z,928.00
2018-09-04T01:39:33.214Z,928.14
2018-09-04T01:40:33.158Z,928.07
2018-09-04T01:41:33.109Z,928.07
2018-09-04T01:42:33.066Z,928.05
2018-09-04T01:43:33.010Z,928.05
2018-09-04T01:44:32.969Z,928.03
2018-09-04T01:45:32.919Z,928.02
2018-09-04T01:46:32.890Z,928.03
2018-09-04T01:47:32.825Z,927.99
2018-09-04T01:48:32.774Z,927.95
2018-09-04T01:49:32.722Z,927.97
2018-09-04T01:50:32.679Z,927.96
2018-09-04T01:51:32.631Z,927.93
2018-09-04T01:52:32.579Z,928.00
2018-09-04T01:53:32.550Z,927.98
2018-09-04T01:54:32.488Z,927.95
2018-09-04T01:55:32.438Z,927.96
2018-09-04T01:56:32.390Z,927.99
2018-09-04T01:57:32.350Z,928.00
2018-09-04T01:58:32.297Z,927.97
2018-09-04T01:59:32.245Z,927.88
2018-09-04T02:00:32.212Z,927.98
2018-09-04T02:01:32.146Z,927.90
2018-09-04T02:02:32.092Z,927.91
2018-09-04T02:03:32.050Z,927.87
2018-09-04T02:04:31.988Z,927.81
2018-09-04T02:05:31.952Z,927.84
2018-09-04T02:06:31.905Z,927.84
2018-09-04T02:07:31.860Z,927.81
2018-09-04T02:08:31.812Z,927.87
2018-09-04T02:09:31.757Z,927.87
2018-09-04T02:10:31.694Z,927.91
2018-09-04T02:11:31.653Z,927.87
2018-09-04T02:12:31.629Z,927.81
2018-09-04T02:13:31.553Z,927.96
2018-09-04T02:14:31.514Z,927.78
2018-09-04T02:15:31.475Z,927.81
2018-09-04T02:16:31.423Z,927.87
2018-09-04T02:17:31.362Z,927.83
2018-09-04T02:18:31.323Z,927.80
2018-09-04T02:19:31.277Z,927.86
2018-09-04T02:20:31.226Z,927.85
2018-09-04T02:21:31.167Z,927.79
2018-09-04T02:22:31.118Z,927.81
2018-09-04T02:23:31.075Z,927.80
2018-09-04T02:24:31.022Z,927.81
2018-09-04T02:25:30.990Z,927.83
2018-09-04T02:26:30.928Z,927.83
2018-09-04T02:27:30.881Z,927.80
2018-09-04T02:28:30.815Z,927.80
2018-09-04T02:29:30.786Z,927.75
2018-09-04T02:30:30.738Z,927.78
2018-09-04T02:31:30.693Z,927.81
2018-09-04T02:32:30.638Z,927.83
2018-09-04T02:33:30.571Z,927.81
2018-09-04T02:34:30.532Z,927.81
2018-09-04T02:35:30.490Z,927.78
2018-09-04T02:36:30.431Z,927.75
2018-09-04T02:37:30.392Z,927.83
2018-09-04T02:38:30.350Z,927.81
2018-09-04T02:39:30.295Z,927.88
2018-09-04T02:40:30.245Z,927.83
2018-09-04T02:41:30.197Z,927.86
2018-09-04T02:42:30.149Z,927.93
2018-09-04T02:43:30.105Z,927.86
2018-09-04T02:44:30.051Z,927.88
2018-09-04T02:45:29.991Z,927.79
2018-09-04T02:46:29.940Z,927.68
2018-09-04T02:47:29.907Z,927.78
2018-09-04T02:48:29.850Z,927.64
2018-09-04T02:49:29.806Z,927.63
2018-09-04T02:50:29.757Z,927.61
2018-09-04T02:51:29.706Z,927.62
2018-09-04T02:52:29.653Z,927.57
2018-09-04T02:53:29.617Z,927.61
2018-09-04T02:54:29.555Z,927.58
2018-09-04T02:55:29.510Z,927.64
2018-09-04T02:56:29.463Z,927.60
2018-09-04T02:57:29.410Z,927.61
2018-09-04T02:58:29.365Z,927.60
2018-09-04T02:59:29.316Z,927.67
2018-09-04T03:00:29.276Z,927.62
2018-09-04T03:01:29.217Z,927.57
2018-09-04T03:02:29.169Z,927.60
2018-09-04T03:03:29.121Z,927.51
2018-09-04T03:04:29.071Z,927.62
2018-09-04T03:05:29.038Z,927.60
2018-09-04T03:06:28.972Z,927.65
2018-09-04T03:07:28.918Z,927.55
2018-09-04T03:08:28.875Z,927.55
2018-09-04T03:09:28.827Z,927.59
2018-09-04T03:10:28.785Z,927.54
2018-09-04T03:11:28.879Z,927.56
2018-09-04T03:12:28.671Z,927.62
2018-09-04T03:13:28.675Z,927.52
2018-09-04T03:14:28.579Z,927.46
2018-09-04T03:15:28.533Z,927.53
2018-09-04T03:16:28.478Z,927.54
2018-09-04T03:17:28.428Z,927.52
2018-09-04T03:18:28.384Z,927.48
2018-09-04T03:19:28.336Z,927.55
2018-09-04T03:20:28.286Z,927.56
2018-09-04T03:21:28.238Z,927.49
2018-09-04T03:22:28.191Z,927.35
2018-09-04T03:23:28.135Z,927.48
2018-09-04T03:24:28.088Z,927.39
2018-09-04T03:25:28.038Z,927.44
2018-09-04T03:26:27.990Z,927.41
2018-09-04T03:27:27.950Z,927.51
2018-09-04T03:28:27.896Z,927.47
2018-09-04T03:29:27.840Z,927.54
2018-09-04T03:30:27.800Z,927.44
2018-09-04T03:31:27.740Z,927.54
2018-09-04T03:32:27.702Z,927.49
2018-09-04T03:33:27.644Z,927.42
2018-09-04T03:34:27.601Z,927.42
2018-09-04T03:35:27.549Z,927.49
2018-09-04T03:36:27.499Z,927.42
2018-09-04T03:37:27.455Z,927.45
2018-09-04T03:38:27.406Z,927.52
2018-09-04T03:39:27.354Z,927.48
2018-09-04T03:40:27.317Z,927.43
2018-09-04T03:41:27.251Z,927.44
2018-09-04T03:42:27.285Z,927.47
2018-09-04T03:43:27.159Z,927.44
2018-09-04T03:44:27.233Z,927.46
2018-09-04T03:45:27.061Z,927.50
2018-09-04T03:46:27.016Z,927.51
2018-09-04T03:47:26.968Z,927.50
2018-09-04T03:48:26.918Z,927.45
2018-09-04T03:49:26.876Z,927.49
2018-09-04T03:50:26.808Z,927.47
2018-09-04T03:51:26.771Z,927.49
2018-09-04T03:52:26.908Z,927.44
2018-09-04T03:53:26.673Z,927.49
2018-09-04T03:54:26.623Z,927.47
2018-09-04T03:55:26.571Z,927.50
2018-09-04T03:56:26.521Z,927.40
2018-09-04T03:57:26.479Z,927.39
2018-09-04T03:58:26.427Z,927.39
2018-09-04T03:59:26.359Z,927.45
2018-09-04T04:00:26.321Z,927.36
2018-09-04T04:01:26.367Z,927.36
2018-09-04T04:02:26.244Z,927.38
2018-09-04T04:03:26.179Z,927.36
2018-09-04T04:04:26.120Z,927.41
2018-09-04T04:05:26.064Z,927.34
2018-09-04T04:06:26.043Z,927.34
2018-09-04T04:07:25.986Z,927.35
2018-09-04T04:08:25.926Z,927.37
2018-09-04T04:09:25.885Z,927.35
2018-09-04T04:10:25.828Z,927.31
2018-09-04T04:11:25.778Z,927.36
2018-09-04T04:12:25.734Z,927.39
2018-09-04T04:13:25.693Z,927.31
2018-09-04T04:14:25.635Z,927.34
2018-09-04T04:15:25.592Z,927.34
2018-09-04T04:16:25.521Z,927.39
2018-09-04T04:17:25.485Z,927.30
2018-09-04T04:18:25.437Z,927.32
2018-09-04T04:19:25.401Z,927.32
2018-09-04T04:20:25.352Z,927.30
2018-09-04T04:21:25.285Z,927.34
2018-09-04T04:22:25.252Z,927.26
2018-09-04T04:23:25.179Z,927.25
2018-09-04T04:24:25.141Z,927.23
2018-09-04T04:25:25.099Z,927.21
2018-09-04T04:26:25.044Z,927.22
2018-09-04T04:27:25.000Z,927.16
2018-09-04T04:28:24.942Z,927.18
2018-09-04T04:29:24.902Z,927.21
2018-09-04T04:30:24.859Z,927.20
2018-09-04T04:31:24.797Z,927.18
2018-09-04T04:32:24.753Z,927.12
2018-09-04T04:33:24.704Z,927.11
2018-09-04T04:34:24.637Z,927.09
2018-09-04T04:35:24.603Z,927.03
2018-09-04T04:36:24.566Z,927.12
2018-09-04T04:37:24.505Z,927.06
2018-09-04T04:38:24.456Z,927.00
2018-09-04T04:39:24.408Z,927.17
2018-09-04T04:40:24.364Z,927.03
2018-09-04T04:41:24.316Z,927.08
2018-09-04T04:42:24.259Z,927.03
2018-09-04T04:43:24.194Z,927.00
2018-09-04T04:44:24.162Z,926.99
2018-09-04T04:45:24.111Z,926.92
2018-09-04T04:46:24.055Z,926.94
2018-09-04T04:47:24.014Z,926.91
2018-09-04T04:48:23.982Z,926.95
2018-09-04T04:49:23.904Z,926.98
2018-09-04T04:50:23.868Z,926.93
2018-09-04T04:51:23.820Z,926.96
2018-09-04T04:52:23.769Z,926.94
2018-09-04T04:53:23.717Z,926.88
2018-09-04T04:54:23.674Z,926.88
2018-09-04T04:55:23.616Z,926.85
2018-09-04T04:56:23.569Z,926.79
2018-09-04T04:57:23.519Z,926.82
2018-09-04T04:58:23.475Z,926.88
2018-09-04T04:59:23.420Z,926.86
2018-09-04T05:00:23.493Z,926.83
2018-09-04T05:01:23.329Z,926.76
2018-09-04T05:02:23.278Z,926.75
2018-09-04T05:03:23.217Z,926.73
2018-09-04T05:04:23.161Z,926.75
2018-09-04T05:05:23.127Z,926.80
2018-09-04T05:06:23.076Z,926.84
2018-09-04T05:07:23.046Z,926.79
2018-09-04T05:08:22.974Z,926.70
2018-09-04T05:09:22.926Z,926.76
2018-09-04T05:10:22.868Z,926.71
2018-09-04T05:11:22.875Z,926.77
2018-09-04T05:12:22.789Z,926.83
2018-09-04T05:13:22.725Z,926.79
2018-09-04T05:14:22.691Z,926.73
2018-09-04T05:15:22.625Z,926.78
2018-09-04T05:16:22.581Z,926.77
2018-09-04T05:17:22.531Z,926.72
2018-09-04T05:18:22.482Z,926.72
2018-09-04T05:19:22.424Z,926.67
2018-09-04T05:20:22.383Z,926.68
2018-09-04T05:21:22.329Z,926.71
2018-09-04T05:22:22.277Z,926.61
2018-09-04T05:23:22.220Z,926.53
2018-09-04T05:24:22.179Z,926.55
2018-09-04T05:25:22.135Z,926.64
2018-09-04T05:26:22.091Z,926.59
2018-09-04T05:27:22.030Z,926.62
2018-09-04T05:28:21.987Z,926.55
2018-09-04T05:29:22.013Z,926.60
2018-09-04T05:30:21.894Z,926.57
2018-09-04T05:31:21.842Z,926.57
2018-09-04T05:32:21.787Z,926.58
2018-09-04T05:33:21.764Z,926.60
2018-09-04T05:34:21.694Z,926.65
2018-09-04T05:35:21.644Z,926.63
2018-09-04T05:36:21.603Z,926.62
2018-09-04T05:37:21.543Z,926.62
2018-09-04T05:38:21.477Z,926.72
2018-09-04T05:39:21.437Z,926.64
2018-09-04T05:40:21.395Z,926.66
2018-09-04T05:41:21.334Z,926.68
2018-09-04T05:42:21.302Z,926.63
2018-09-04T05:43:21.246Z,926.63
2018-09-04T05:44:21.201Z,926.58
2018-09-04T05:45:21.150Z,926.59
2018-09-04T05:46:21.098Z,926.54
2018-09-04T05:47:21.058Z,926.56
2018-09-04T05:48:21.009Z,926.54
2018-09-04T05:49:20.951Z,926.52
2018-09-04T05:50:20.913Z,926.51
2018-09-04T05:51:20.841Z,926.49
2018-09-04T05:52:20.805Z,926.42
2018-09-04T05:53:20.753Z,926.43
2018-09-04T05:54:20.705Z,926.46
2018-09-04T05:55:20.746Z,926.38
2018-09-04T05:56:20.604Z,926.39
2018-09-04T05:57:20.562Z,926.34
2018-09-04T05:58:20.504Z,926.38
2018-09-04T05:59:20.452Z,926.36
2018-09-04T06:00:20.410Z,926.30
2018-09-04T06:01:20.364Z,926.25
2018-09-04T06:02:20.295Z,926.29
2018-09-04T06:03:20.262Z,926.32
2018-09-04T06:04:20.206Z,926.37
2018-09-04T06:05:20.147Z,926.34
2018-09-04T06:06:20.111Z,926.27
2018-09-04T06:07:20.065Z,926.25
2018-09-04T06:08:20.008Z,926.19
2018-09-04T06:09:19.959Z,926.16
2018-09-04T06:10:19.913Z,926.22
2018-09-04T06:11:19.862Z,926.13
2018-09-04T06:12:19.799Z,926.15
2018-09-04T06:13:19.765Z,926.16
2018-09-04T06:14:19.729Z,926.08
2018-09-04T06:15:19.678Z,926.09
2018-09-04T06:16:19.617Z,926.12
2018-09-04T06:17:19.567Z,926.08
2018-09-04T06:18:19.516Z,926.11
2018-09-04T06:19:19.466Z,926.18
2018-09-04T06:20:19.407Z,926.11
2018-09-04T06:21:19.386Z,926.24
2018-09-04T06:22:19.318Z,926.13
2018-09-04T06:23:19.271Z,926.12
2018-09-04T06:24:19.221Z,926.08
2018-09-04T06:25:19.156Z,926.09
2018-09-04T06:26:19.103Z,926.13
2018-09-04T06:27:19.073Z,926.11
2018-09-04T06:28:19.024Z,926.06
2018-09-04T06:29:18.981Z,926.04
2018-09-04T06:30:18.913Z,926.10
2018-09-04T06:31:18.869Z,926.05
2018-09-04T06:32:18.828Z,926.12
2018-09-04T06:33:18.777Z,926.11
2018-09-04T06:34:18.728Z,926.12
2018-09-04T06:35:18.667Z,926.08
2018-09-04T06:36:18.631Z,926.10
2018-09-04T06:37:18.578Z,926.13
2018-09-04T06:38:18.537Z,926.08
2018-09-04T06:39:18.478Z,926.15
2018-09-04T06:40:18.426Z,926.13
2018-09-04T06:41:18.380Z,926.15
2018-09-04T06:42:18.345Z,926.14
2018-09-04T06:43:18.290Z,926.18
2018-09-04T06:44:18.225Z,926.18
2018-09-04T06:45:18.182Z,926.16
2018-09-04T06:46:18.132Z,926.07
2018-09-04T06:47:18.084Z,926.03
2018-09-04T06:48:18.041Z,926.06
2018-09-04T06:49:17.988Z,926.05
2018-09-04T06:50:17.933Z,926.06
2018-09-04T06:51:17.882Z,926.14
2018-09-04T06:52:17.841Z,926.11
2018-09-04T06:53:17.782Z,926.08
2018-09-04T06:54:17.737Z,926.13
2018-09-04T06:55:17.683Z,926.17
2018-09-04T06:56:17.640Z,926.16
2018-09-04T06:57:17.581Z,926.11
2018-09-04T06:58:17.540Z,926.13
2018-09-04T06:59:17.490Z,926.08
2018-09-04T07:00:17.438Z,926.11
2018-09-04T07:01:17.395Z,926.08
2018-09-04T07:02:17.343Z,926.04
2018-09-04T07:03:17.303Z,925.99
2018-09-04T07:04:17.239Z,925.98
2018-09-04T07:05:17.202Z,926.04
2018-09-04T07:06:17.131Z,925.97
2018-09-04T07:07:17.097Z,926.01
2018-09-04T07:08:17.057Z,926.07
2018-09-04T07:09:16.993Z,926.05
2018-09-04T07:10:16.943Z,926.09
2018-09-04T07:11:16.895Z,926.13
2018-09-04T07:12:16.837Z,926.06
2018-09-04T07:13:16.795Z,926.04
2018-09-04T07:14:16.732Z,926.10
2018-09-04T07:15:16.717Z,926.12
2018-09-04T07:16:16.649Z,926.12
2018-09-04T07:17:16.603Z,926.17
2018-09-04T07:18:16.547Z,926.18
2018-09-04T07:19:16.497Z,926.20
2018-09-04T07:20:16.457Z,926.22
2018-09-04T07:21:16.398Z,926.16
2018-09-04T07:22:16.359Z,926.19
2018-09-04T07:23:16.301Z,926.24
2018-09-04T07:24:16.323Z,926.27
2018-09-04T07:25:16.210Z,926.25
2018-09-04T07:26:16.138Z,926.32
2018-09-04T07:27:16.103Z,926.30
2018-09-04T07:28:16.080Z,926.32
2018-09-04T07:29:16.011Z,926.25
2018-09-04T07:30:15.962Z,926.29
2018-09-04T07:31:15.906Z,926.30
2018-09-04T07:32:15.861Z,926.27
2018-09-04T07:33:15.806Z,926.25
2018-09-04T07:34:15.743Z,926.31
2018-09-04T07:35:15.707Z,926.32
2018-09-04T07:36:15.676Z,926.23
2018-09-04T07:37:15.606Z,926.26
2018-09-04T07:38:15.571Z,926.30
2018-09-04T07:39:15.514Z,926.25
2018-09-04T07:40:15.444Z,926.31
2018-09-04T07:41:15.416Z,926.30
2018-09-04T07:42:15.367Z,926.26
2018-09-04T07:43:15.313Z,926.30
2018-09-04T07:44:15.258Z,926.34
2018-09-04T07:45:15.209Z,926.34
2018-09-04T07:46:15.161Z,926.30
2018-09-04T07:47:15.114Z,926.27
2018-09-04T07:48:15.067Z,926.28
2018-09-04T07:49:15.026Z,926.25
2018-09-04T07:50:14.971Z,926.28
2018-09-04T07:51:14.906Z,926.24
2018-09-04T07:52:14.868Z,926.24
2018-09-04T07:53:14.821Z,926.28
2018-09-04T07:54:14.772Z,926.26
2018-09-04T07:55:14.725Z,926.23
2018-09-04T07:56:14.672Z,926.22
2018-09-04T07:57:14.608Z,926.16
2018-09-04T07:58:14.576Z,926.21
2018-09-04T07:59:14.522Z,926.21
2018-09-04T08:00:14.484Z,926.18
2018-09-04T08:01:14.433Z,926.13
2018-09-04T08:02:14.377Z,926.23
2018-09-04T08:03:14.315Z,926.25
2018-09-04T08:04:14.288Z,926.31
2018-09-04T08:05:14.237Z,926.27
2018-09-04T08:06:14.178Z,926.23
2018-09-04T08:07:14.125Z,926.25
2018-09-04T08:08:14.083Z,926.27
2018-09-04T08:09:14.026Z,926.23
2018-09-04T08:10:14.073Z,926.18
2018-09-04T08:11:13.934Z,926.20
2018-09-04T08:12:13.888Z,926.23
2018-09-04T08:13:13.833Z,926.25
2018-09-04T08:14:13.788Z,926.24
2018-09-04T08:15:13.724Z,926.26
2018-09-04T08:16:13.762Z,926.24
2018-09-04T08:17:13.648Z,926.24
2018-09-04T08:18:13.590Z,926.27
2018-09-04T08:19:13.532Z,926.26
2018-09-04T08:20:13.500Z,926.30
2018-09-04T08:21:13.455Z,926.35
2018-09-04T08:22:13.391Z,926.32
2018-09-04T08:23:13.325Z,926.32
2018-09-04T08:24:13.287Z,926.36
2018-09-04T08:25:13.247Z,926.41
2018-09-04T08:26:13.341Z,926.43
2018-09-04T08:27:13.137Z,926.45
2018-09-04T08:28:13.101Z,926.43
2018-09-04T08:29:13.045Z,926.44
2018-09-04T08:30:12.999Z,926.44
2018-09-04T08:31:12.947Z,926.42
2018-09-04T08:32:12.883Z,926.40
2018-09-04T08:33:12.938Z,926.39
2018-09-04T08:34:12.804Z,926.37
2018-09-04T08:35:12.741Z,926.43
2018-09-04T08:36:12.693Z,926.41
2018-09-04T08:37:12.645Z,926.40
2018-09-04T08:38:12.602Z,926.38
2018-09-04T08:39:12.552Z,926.30
2018-09-04T08:40:12.505Z,926.35
2018-09-04T08:41:12.456Z,926.30
2018-09-04T08:42:12.402Z,926.31
2018-09-04T08:43:12.359Z,926.37
2018-09-04T08:44:12.302Z,926.29
2018-09-04T08:45:12.253Z,926.34
2018-09-04T08:46:12.210Z,926.32
2018-09-04T08:47:12.225Z,926.39
2018-09-04T08:48:12.114Z,926.35
2018-09-04T08:49:12.055Z,926.43
2018-09-04T08:50:12.013Z,926.44
2018-09-04T08:51:11.966Z,926.48
2018-09-04T08:52:11.922Z,926.50
2018-09-04T08:53:11.877Z,926.48
2018-09-04T08:54:11.803Z,926.54
2018-09-04T08:55:11.812Z,926.58
2018-09-04T08:56:11.709Z,926.59
2018-09-04T08:57:11.662Z,926.58
2018-09-04T08:58:11.614Z,926.55
2018-09-04T08:59:11.563Z,926.57
2018-09-04T09:00:11.527Z,926.56
2018-09-04T09:01:11.466Z,926.50
2018-09-04T09:02:11.412Z,926.52
2018-09-04T09:03:11.365Z,926.47
2018-09-04T09:04:11.327Z,926.50
2018-09-04T09:05:11.279Z,926.45
2018-09-04T09:06:11.214Z,926.42
2018-09-04T09:07:11.155Z,926.42
2018-09-04T09:08:11.117Z,926.43
2018-09-04T09:09:11.070Z,926.44
2018-09-04T09:10:11.093Z,926.46
2018-09-04T09:11:10.979Z,926.45
2018-09-04T09:12:10.919Z,926.52
2018-09-04T09:13:10.870Z,926.58
2018-09-04T09:14:10.811Z,926.53
2018-09-04T09:15:10.773Z,926.62
2018-09-04T09:16:10.721Z,926.63
2018-09-04T09:17:10.656Z,926.65
2018-09-04T09:18:10.624Z,926.71
2018-09-04T09:19:10.570Z,926.76
2018-09-04T09:20:10.512Z,926.75
2018-09-04T09:21:10.474Z,926.82
2018-09-04T09:22:10.431Z,926.78
2018-09-04T09:23:10.358Z,926.78
2018-09-04T09:24:10.326Z,926.86
2018-09-04T09:25:10.277Z,926.83
2018-09-04T09:26:10.233Z,926.87
2018-09-04T09:27:10.183Z,926.89
2018-09-04T09:28:10.133Z,926.92
2018-09-04T09:29:10.075Z,926.88
2018-09-04T09:30:10.027Z,926.95
2018-09-04T09:31:09.983Z,927.00
2018-09-04T09:32:09.944Z,926.99
2018-09-04T09:33:09.886Z,927.01
2018-09-04T09:34:09.820Z,926.99
2018-09-04T09:35:09.802Z,926.97
2018-09-04T09:36:09.739Z,926.97
2018-09-04T09:37:09.755Z,926.93
2018-09-04T09:38:09.624Z,926.95
2018-09-04T09:39:09.600Z,926.91
2018-09-04T09:40:09.538Z,926.94
2018-09-04T09:41:09.474Z,926.91
2018-09-04T09:42:09.449Z,926.94
2018-09-04T09:43:09.397Z,926.97
2018-09-04T09:44:09.345Z,926.98
2018-09-04T09:45:09.305Z,927.00
2018-09-04T09:46:09.249Z,926.99
2018-09-04T09:47:09.198Z,927.01
2018-09-04T09:48:09.130Z,927.02
2018-09-04T09:49:09.099Z,927.06
2018-09-04T09:50:09.054Z,927.05
2018-09-04T09:51:08.997Z,927.06
2018-09-04T09:52:08.946Z,927.10
2018-09-04T09:53:09.057Z,927.14
2018-09-04T09:54:08.833Z,927.14
2018-09-04T09:55:08.812Z,927.16
2018-09-04T09:56:08.769Z,927.19
2018-09-04T09:57:08.693Z,927.18
2018-09-04T09:58:08.659Z,927.26
2018-09-04T09:59:08.607Z,927.27
2018-09-04T10:00:08.568Z,927.23
2018-09-04T10:01:08.634Z,927.28
2018-09-04T10:02:08.463Z,927.25
2018-09-04T10:03:08.438Z,927.26
2018-09-04T10:04:08.438Z,927.34
2018-09-04T10:05:08.319Z,927.36
2018-09-04T10:06:08.266Z,927.38
2018-09-04T10:07:08.214Z,927.38
2018-09-04T10:08:08.300Z,927.37
2018-09-04T10:09:08.117Z,927.39
2018-09-04T10:10:08.089Z,927.38
2018-09-04T10:11:08.140Z,927.44
2018-09-04T10:12:07.966Z,927.44
2018-09-04T10:13:07.921Z,927.38
2018-09-04T10:14:07.867Z,927.40
2018-09-04T10:15:07.831Z,927.43
2018-09-04T10:16:07.800Z,927.42
2018-09-04T10:17:07.724Z,927.40
2018-09-04T10:18:07.673Z,927.47
2018-09-04T10:19:07.625Z,927.44
2018-09-04T10:20:07.578Z,927.50
2018-09-04T10:21:07.528Z,927.56
2018-09-04T10:22:07.474Z,927.56
2018-09-04T10:23:07.429Z,927.55
2018-09-04T10:24:07.385Z,927.54
2018-09-04T10:25:07.336Z,927.62
2018-09-04T10:26:07.283Z,927.60
2018-09-04T10:27:07.238Z,927.56
2018-09-04T10:28:07.191Z,927.61
2018-09-04T10:29:07.132Z,927.54
2018-09-04T10:30:07.071Z,927.56
2018-09-04T10:31:07.023Z,927.49
2018-09-04T10:32:06.986Z,927.65
2018-09-04T10:33:06.939Z,927.56
2018-09-04T10:34:06.904Z,927.60
2018-09-04T10:35:06.871Z,927.61
2018-09-04T10:36:06.831Z,927.68
2018-09-04T10:37:06.743Z,927.70
2018-09-04T10:38:06.695Z,927.77
2018-09-04T10:39:06.645Z,927.80
2018-09-04T10:40:06.603Z,927.81
2018-09-04T10:41:06.538Z,927.79
2018-09-04T10:42:06.551Z,927.85
2018-09-04T10:43:06.460Z,927.95
2018-09-04T10:44:06.403Z,927.91
2018-09-04T10:45:06.355Z,927.93
2018-09-04T10:46:06.308Z,927.91
2018-09-04T10:47:06.255Z,927.91
2018-09-04T10:48:06.201Z,927.90
2018-09-04T10:49:06.158Z,927.90
2018-09-04T10:50:06.110Z,927.92
2018-09-04T10:51:06.062Z,927.99
2018-09-04T10:52:06.010Z,928.03
2018-09-04T10:53:05.956Z,928.04
2018-09-04T10:54:05.914Z,928.07
2018-09-04T10:55:05.873Z,928.07
2018-09-04T10:56:05.817Z,928.10
2018-09-04T10:57:05.770Z,928.03
2018-09-04T10:58:05.723Z,928.10
2018-09-04T10:59:05.666Z,928.14
2018-09-04T11:00:05.603Z,928.12
2018-09-04T11:01:05.565Z,928.12
2018-09-04T11:02:05.513Z,928.14
2018-09-04T11:03:05.474Z,928.16
2018-09-04T11:04:05.420Z,928.16
2018-09-04T11:05:05.376Z,928.13
2018-09-04T11:06:05.331Z,928.13
2018-09-04T11:07:05.276Z,928.08
2018-09-04T11:08:05.235Z,928.15
2018-09-04T11:09:05.207Z,928.14
2018-09-04T11:10:05.134Z,928.11
2018-09-04T11:11:05.088Z,928.12
2018-09-04T11:12:05.041Z,928.12
2018-09-04T11:13:04.987Z,928.17
2018-09-04T11:14:04.938Z,928.22
2018-09-04T11:15:04.876Z,928.22
2018-09-04T11:16:04.843Z,928.20
2018-09-04T11:17:04.792Z,928.25
2018-09-04T11:18:04.746Z,928.19
2018-09-04T11:19:04.720Z,928.23
2018-09-04T11:20:04.642Z,928.24
2018-09-04T11:21:04.598Z,928.27
2018-09-04T11:22:04.556Z,928.31
2018-09-04T11:23:04.491Z,928.30
2018-09-04T11:24:04.454Z,928.35
2018-09-04T11:25:04.391Z,928.36
2018-09-04T11:26:04.357Z,928.43
2018-09-04T11:27:04.313Z,928.41
2018-09-04T11:28:04.266Z,928.41
2018-09-04T11:29:04.196Z,928.43
2018-09-04T11:30:04.166Z,928.42
2018-09-04T11:31:04.114Z,928.44
2018-09-04T11:32:04.052Z,928.44
2018-09-04T11:33:04.021Z,928.46
2018-09-04T11:34:03.967Z,928.47
2018-09-04T11:35:03.935Z,928.46
2018-09-04T11:36:03.873Z,928.47
2018-09-04T11:37:03.827Z,928.47
2018-09-04T11:38:03.773Z,928.47
2018-09-04T11:39:03.753Z,928.53
2018-09-04T11:40:03.674Z,928.50
2018-09-04T11:41:03.615Z,928.51
2018-09-04T11:42:03.582Z,928.56
2018-09-04T11:43:03.534Z,928.55
2018-09-04T11:44:03.488Z,928.57
2018-09-04T11:45:03.435Z,928.60
2018-09-04T11:46:03.389Z,928.65
2018-09-04T11:47:03.426Z,928.63
2018-09-04T11:48:03.301Z,928.64
2018-09-04T11:49:03.240Z,928.65
2018-09-04T11:50:03.218Z,928.70
2018-09-04T11:51:03.168Z,928.71
2018-09-04T11:52:03.106Z,928.68
2018-09-04T11:53:03.066Z,928.66
2018-09-04T11:54:03.013Z,928.73
2018-09-04T11:55:02.962Z,928.69
2018-09-04T11:56:02.909Z,928.65
2018-09-04T11:57:02.861Z,928.73
2018-09-04T11:58:02.821Z,928.70
2018-09-04T11:59:02.767Z,928.72
2018-09-04T12:00:02.721Z,928.74
2018-09-04T12:01:02.669Z,928.71
2018-09-04T12:02:02.671Z,928.70
2018-09-04T12:03:02.580Z,928.72
2018-09-04T12:04:02.539Z,928.72
2018-09-04T12:05:02.483Z,928.69
2018-09-04T12:06:02.432Z,928.67
2018-09-04T12:07:02.384Z,928.71
2018-09-04T12:08:02.351Z,928.66
2018-09-04T12:09:02.289Z,928.70
2018-09-04T12:10:02.240Z,928.73
2018-09-04T12:11:02.194Z,928.64
2018-09-04T12:12:02.142Z,928.60
2018-09-04T12:13:02.099Z,928.65
2018-09-04T12:14:02.053Z,928.67
2018-09-04T12:15:01.985Z,928.67
2018-09-04T12:16:01.969Z,928.66
2018-09-04T12:17:01.919Z,928.68
2018-09-04T12:18:01.862Z,928.68
2018-09-04T12:19:01.895Z,928.67
2018-09-04T12:20:01.770Z,928.74
2018-09-04T12:21:01.861Z,928.75
2018-09-04T12:22:01.673Z,928.78
2018-09-04T12:23:01.623Z,928.79
2018-09-04T12:24:01.577Z,928.78
2018-09-04T12:25:01.554Z,928.77
2018-09-04T12:26:01.475Z,928.80
2018-09-04T12:27:01.458Z,928.86
2018-09-04T12:28:01.393Z,928.85